Time;durP1;ratioP1;P1;durP2;ratioP2;P2;SDS_P1;SDS_P2;PMS_P1;PMS_P2;Temp;Humidity;BMP_temperature;BMP_pressure;BME280_temperature;BME280_humidity;BME280_pressure;Samples;Min_cycle;Max_cycle;Signal;HPM_P1;HPM_P2
2023/10/31 00:00:22;;;;;;;7.95;3.38;;;12.30;99.90;;;;;;5043165;28;20029;-91
2023/10/31 00:02:47;;;;;;;7.93;3.22;;;12.30;99.90;;;;;;5029510;28;20039;-91
2023/10/31 00:05:13;;;;;;;6.78;3.30;;;12.30;99.90;;;;;;5033580;28;20024;-91
2023/10/31 00:07:39;;;;;;;6.18;2.70;;;12.30;99.90;;;;;;5050747;28;20094;-91
2023/10/31 00:10:04;;;;;;;8.95;3.55;;;12.30;99.90;;;;;;5049656;28;20053;-91
2023/10/31 00:12:30;;;;;;;10.27;4.13;;;12.30;99.90;;;;;;5051250;28;20025;-91
2023/10/31 00:14:56;;;;;;;8.65;4.40;;;12.20;99.90;;;;;;5030130;28;20092;-91
2023/10/31 00:17:21;;;;;;;9.68;5.53;;;12.10;99.90;;;;;;5050559;28;20029;-88
2023/10/31 00:19:47;;;;;;;8.75;4.55;;;12.00;99.90;;;;;;5049806;28;20037;-91
2023/10/31 00:22:13;;;;;;;8.07;3.53;;;12.00;99.90;;;;;;5050265;28;20017;-89
2023/10/31 00:24:38;;;;;;;9.35;5.05;;;11.80;99.90;;;;;;5050892;28;20025;-90
2023/10/31 00:27:04;;;;;;;10.07;4.80;;;11.80;99.90;;;;;;5052518;28;20043;-92
2023/10/31 00:29:30;;;;;;;10.00;4.88;;;11.70;99.90;;;;;;5054621;28;20037;-91
2023/10/31 00:31:55;;;;;;;9.23;4.43;;;11.60;99.90;;;;;;5054726;28;20039;-91
2023/10/31 00:34:21;;;;;;;8.90;3.80;;;11.50;99.90;;;;;;5025882;28;20036;-90
2023/10/31 00:36:47;;;;;;;7.93;3.38;;;11.40;99.90;;;;;;5052306;28;20082;-90
2023/10/31 00:39:12;;;;;;;8.65;4.15;;;11.30;99.90;;;;;;5047919;28;20090;-91
2023/10/31 00:41:44;;;;;;;7.90;3.47;;;11.20;99.90;;;;;;5033552;28;20021;-91
2023/10/31 00:44:10;;;;;;;8.95;5.00;;;11.10;99.90;;;;;;5052790;28;20017;-90
2023/10/31 00:46:35;;;;;;;11.80;4.63;;;11.00;99.90;;;;;;5052058;28;20028;-90
2023/10/31 00:49:01;;;;;;;8.18;3.70;;;10.90;99.90;;;;;;5052712;28;20078;-90
2023/10/31 00:51:26;;;;;;;11.05;4.30;;;10.90;99.90;;;;;;5049415;28;20388;-90
2023/10/31 00:53:52;;;;;;;8.40;4.00;;;10.80;99.90;;;;;;5028896;28;20496;-91
2023/10/31 00:56:18;;;;;;;8.57;4.07;;;10.80;99.90;;;;;;5051566;28;20450;-90
2023/10/31 00:58:43;;;;;;;9.45;4.47;;;10.70;99.90;;;;;;5035825;28;20369;-92
2023/10/31 01:01:09;;;;;;;8.82;4.22;;;10.70;99.90;;;;;;5053091;28;20102;-92
2023/10/31 01:03:35;;;;;;;8.48;3.90;;;10.60;99.90;;;;;;5035765;28;20518;-91
2023/10/31 01:06:01;;;;;;;9.13;4.45;;;10.60;99.90;;;;;;5027802;28;20480;-92
2023/10/31 01:08:26;;;;;;;8.43;3.78;;;10.60;99.90;;;;;;5050753;28;20120;-92
2023/10/31 01:10:52;;;;;;;7.63;3.70;;;10.60;99.90;;;;;;5052647;28;20033;-92
2023/10/31 01:13:18;;;;;;;7.95;3.88;;;10.60;99.90;;;;;;5055884;28;20040;-91
2023/10/31 01:15:44;;;;;;;7.47;3.35;;;10.60;99.90;;;;;;5053109;28;20037;-92
2023/10/31 01:18:09;;;;;;;6.78;3.10;;;10.50;99.90;;;;;;5052509;28;20044;-91
2023/10/31 01:20:35;;;;;;;7.28;3.25;;;10.50;99.90;;;;;;5052153;28;20544;-90
2023/10/31 01:23:01;;;;;;;5.43;2.28;;;10.50;99.90;;;;;;5053345;28;20063;-92
2023/10/31 01:25:27;;;;;;;6.68;2.95;;;10.40;99.90;;;;;;5052809;28;20116;-92
2023/10/31 01:27:52;;;;;;;6.97;2.85;;;10.40;99.90;;;;;;5050337;28;20021;-92
2023/10/31 01:30:18;;;;;;;8.18;3.38;;;10.40;99.90;;;;;;5052378;28;20032;-92
2023/10/31 01:32:44;;;;;;;5.97;2.65;;;10.40;99.90;;;;;;5051937;28;20025;-91
2023/10/31 01:35:09;;;;;;;5.10;2.03;;;10.40;99.90;;;;;;5053763;28;20112;-91
2023/10/31 01:37:35;;;;;;;5.30;2.20;;;10.40;99.90;;;;;;5050469;28;20052;-91
2023/10/31 01:40:01;;;;;;;4.20;1.88;;;10.30;99.90;;;;;;5051746;28;20018;-91
2023/10/31 01:42:26;;;;;;;5.93;2.25;;;10.30;99.90;;;;;;5051674;28;20131;-92
2023/10/31 01:44:52;;;;;;;4.13;1.60;;;10.30;99.90;;;;;;5050704;28;20017;-92
2023/10/31 01:47:18;;;;;;;5.80;2.30;;;10.30;99.90;;;;;;5052950;28;20053;-91
2023/10/31 01:49:43;;;;;;;6.22;2.47;;;10.20;99.90;;;;;;5051372;28;20029;-92
2023/10/31 01:52:09;;;;;;;7.13;2.60;;;10.20;99.90;;;;;;5051931;28;20020;-92
2023/10/31 01:54:35;;;;;;;4.28;1.77;;;10.20;99.90;;;;;;5051965;28;20029;-92
2023/10/31 01:57:03;;;;;;;6.22;2.45;;;10.20;99.90;;;;;;5050188;28;20029;-91
2023/10/31 01:59:29;;;;;;;5.65;2.10;;;10.20;99.90;;;;;;5051749;28;20032;-91
2023/10/31 02:01:56;;;;;;;5.30;2.35;;;10.20;99.90;;;;;;5051443;28;20024;-91
2023/10/31 02:04:21;;;;;;;9.00;3.50;;;10.20;99.90;;;;;;5051574;28;20028;-91
2023/10/31 02:06:47;;;;;;;8.07;3.72;;;10.20;99.90;;;;;;5051231;28;20029;-92
2023/10/31 02:09:12;;;;;;;9.27;4.38;;;10.20;99.90;;;;;;5051563;28;20040;-91
2023/10/31 02:11:38;;;;;;;10.63;5.03;;;10.20;99.90;;;;;;5027595;28;20448;-90
2023/10/31 02:14:04;;;;;;;8.77;4.60;;;11.40;99.90;;;;;;5027471;28;20044;-91
2023/10/31 02:16:29;;;;;;;9.00;4.22;;;10.20;99.90;;;;;;5052828;28;20029;-91
2023/10/31 02:18:55;;;;;;;9.50;4.68;;;10.20;99.90;;;;;;5034546;28;20052;-92
2023/10/31 02:21:21;;;;;;;9.32;4.65;;;10.20;99.90;;;;;;5034496;28;20032;-92
2023/10/31 02:24:03;;;;;;;9.80;4.32;;;10.20;99.90;;;;;;5034771;28;20025;-91
2023/10/31 02:26:33;;;;;;;11.52;4.50;;;10.20;99.90;;;;;;5047174;28;20024;-92
2023/10/31 02:28:59;;;;;;;;;;;10.10;99.90;;;;;;5051325;28;20025;-92
2023/10/31 02:31:25;;;;;;;9.55;4.68;;;10.20;99.90;;;;;;5052844;28;20364;-92
2023/10/31 02:33:51;;;;;;;13.35;4.57;;;10.10;99.90;;;;;;5036728;28;20075;-93
2023/10/31 02:36:17;;;;;;;10.73;4.18;;;10.10;99.90;;;;;;5051330;28;20075;-91
2023/10/31 02:38:43;;;;;;;8.02;4.13;;;10.10;99.90;;;;;;5030556;28;20424;-92
2023/10/31 02:41:09;;;;;;;9.00;4.00;;;10.00;99.90;;;;;;5050970;28;20079;-91
2023/10/31 02:43:35;;;;;;;8.85;4.28;;;;;;;;;;5050982;28;20079;-91
2023/10/31 02:46:00;;;;;;;9.25;4.10;;;9.90;99.90;;;;;;5046692;28;20033;-92
2023/10/31 02:48:26;;;;;;;9.25;3.75;;;9.90;99.90;;;;;;5029993;28;20451;-91
2023/10/31 02:50:52;;;;;;;10.25;4.50;;;9.90;99.90;;;;;;5049896;28;20416;-90
2023/10/31 02:53:18;;;;;;;7.47;3.40;;;9.80;99.90;;;;;;5051973;28;20094;-90
2023/10/31 02:55:44;;;;;;;11.60;4.85;;;;;;;;;;5031952;28;20025;-91
2023/10/31 02:58:10;;;;;;;12.02;3.88;;;9.60;99.90;;;;;;5050639;28;20025;-92
2023/10/31 03:00:36;;;;;;;9.90;3.30;;;9.60;99.90;;;;;;5050419;28;20025;-92
2023/10/31 03:03:02;;;;;;;8.95;4.32;;;9.60;99.90;;;;;;5047763;28;20493;-92
2023/10/31 03:05:28;;;;;;;7.70;3.35;;;9.60;99.90;;;;;;5050099;28;20096;-93
2023/10/31 03:07:54;;;;;;;8.75;3.65;;;9.60;99.90;;;;;;5049650;28;20033;-94
2023/10/31 03:10:21;;;;;;;12.98;4.43;;;9.60;99.90;;;;;;5050472;28;20028;-92
2023/10/31 03:12:47;;;;;;;8.45;3.42;;;9.50;99.90;;;;;;5051044;28;20106;-92
2023/10/31 03:15:13;;;;;;;11.75;3.65;;;9.50;99.90;;;;;;5046643;28;20465;-92
2023/10/31 03:17:39;;;;;;;9.07;4.13;;;9.50;99.90;;;;;;5047144;28;20053;-91
2023/10/31 03:20:05;;;;;;;9.25;3.53;;;9.50;99.90;;;;;;5049671;28;20113;-91
2023/10/31 03:22:30;;;;;;;11.25;5.78;;;9.50;99.90;;;;;;5050385;28;20036;-90
2023/10/31 03:24:56;;;;;;;10.10;4.60;;;9.50;99.90;;;;;;5050466;28;20021;-91
2023/10/31 03:27:22;;;;;;;11.38;4.80;;;9.50;99.90;;;;;;5044644;28;20032;-90
2023/10/31 03:29:48;;;;;;;13.20;5.72;;;9.50;99.90;;;;;;5046374;28;20029;-90
2023/10/31 03:32:14;;;;;;;10.90;4.20;;;9.60;99.90;;;;;;5050779;28;20111;-92
2023/10/31 03:34:40;;;;;;;13.70;5.22;;;9.60;99.90;;;;;;5049238;28;20029;-91
2023/10/31 03:37:05;;;;;;;13.93;5.90;;;9.60;99.90;;;;;;5048939;28;20036;-90
2023/10/31 03:39:31;;;;;;;14.85;5.88;;;9.70;99.90;;;;;;5048483;28;20037;-91
2023/10/31 03:41:57;;;;;;;15.55;6.13;;;9.60;99.90;;;;;;5025983;28;20021;-91
2023/10/31 03:44:22;;;;;;;12.57;6.13;;;9.60;99.90;;;;;;5030044;28;20037;-90
2023/10/31 03:46:48;;;;;;;12.35;5.30;;;9.60;99.90;;;;;;5031845;28;20048;-91
2023/10/31 03:49:14;;;;;;;16.13;7.32;;;9.60;99.90;;;;;;5049103;28;20120;-90
2023/10/31 03:51:39;;;;;;;15.23;6.93;;;9.60;99.90;;;;;;5049506;28;20052;-90
2023/10/31 03:54:05;;;;;;;16.25;7.03;;;9.60;99.90;;;;;;5048733;28;20073;-90
2023/10/31 03:56:37;;;;;;;18.85;7.72;;;9.70;99.90;;;;;;5045259;28;20116;-89
2023/10/31 03:59:03;;;;;;;18.85;7.10;;;9.60;99.90;;;;;;5050327;28;20032;-89
2023/10/31 04:01:29;;;;;;;16.33;7.45;;;9.70;99.90;;;;;;5053581;28;20047;-90
2023/10/31 04:03:54;;;;;;;15.98;7.93;;;9.70;99.90;;;;;;5052844;28;20024;-91
2023/10/31 04:06:20;;;;;;;17.92;6.75;;;9.70;99.90;;;;;;5050207;28;20650;-90
2023/10/31 04:08:45;;;;;;;18.33;8.10;;;9.70;99.90;;;;;;5028788;28;20025;-90
2023/10/31 04:11:11;;;;;;;20.92;7.55;;;9.70;99.90;;;;;;5053757;28;20033;-91
2023/10/31 04:13:37;;;;;;;15.35;7.38;;;9.70;99.90;;;;;;5053087;28;20050;-90
2023/10/31 04:16:03;;;;;;;17.55;7.28;;;9.70;99.90;;;;;;5034272;28;20028;-90
2023/10/31 04:18:28;;;;;;;13.48;5.32;;;9.70;99.90;;;;;;5053909;28;20361;-92
2023/10/31 04:20:54;;;;;;;12.70;5.30;;;9.70;99.90;;;;;;5054493;28;20466;-90
2023/10/31 04:23:19;;;;;;;17.48;6.10;;;9.70;99.90;;;;;;5053531;28;20061;-91
2023/10/31 04:25:46;;;;;;;12.43;5.15;;;9.70;99.90;;;;;;5051800;28;20052;-90
2023/10/31 04:28:13;;;;;;;14.00;6.15;;;9.70;99.90;;;;;;5053495;28;20036;-92
2023/10/31 04:30:39;;;;;;;14.35;6.05;;;9.70;99.90;;;;;;5053377;28;20055;-91
2023/10/31 04:33:05;;;;;;;14.93;6.15;;;9.70;99.90;;;;;;5052890;28;20029;-92
2023/10/31 04:35:30;;;;;;;15.05;6.03;;;9.60;99.90;;;;;;5036744;28;20029;-91
2023/10/31 04:37:56;;;;;;;16.75;7.35;;;9.60;99.90;;;;;;5050407;28;20060;-91
2023/10/31 04:40:22;;;;;;;14.85;7.10;;;9.60;99.90;;;;;;5036823;28;20045;-90
2023/10/31 04:42:48;;;;;;;18.60;7.53;;;9.60;99.90;;;;;;5052800;28;20498;-91
2023/10/31 04:45:13;;;;;;;15.07;5.57;;;9.60;99.90;;;;;;5048955;28;20534;-91
2023/10/31 04:47:40;;;;;;;17.88;7.28;;;9.60;99.90;;;;;;5040388;28;20045;-91
2023/10/31 04:50:06;;;;;;;17.60;7.32;;;9.60;99.90;;;;;;5026192;28;20137;-90
2023/10/31 04:52:31;;;;;;;16.35;6.85;;;9.60;99.90;;;;;;5009735;28;20148;-90
2023/10/31 04:54:57;;;;;;;20.10;8.27;;;9.60;99.90;;;;;;5005011;28;20413;-91
2023/10/31 04:57:23;;;;;;;17.52;7.82;;;9.70;99.90;;;;;;5013268;28;20045;-90
2023/10/31 04:59:48;;;;;;;18.40;7.65;;;9.60;99.90;;;;;;5014280;28;20481;-91
2023/10/31 05:02:14;;;;;;;18.90;7.65;;;9.70;99.90;;;;;;5025884;28;20026;-91
2023/10/31 05:04:40;;;;;;;19.67;9.40;;;9.60;99.90;;;;;;5013839;28;20474;-92
2023/10/31 05:07:06;;;;;;;19.23;7.68;;;9.60;99.90;;;;;;4999579;28;20115;-92
2023/10/31 05:09:31;;;;;;;15.45;6.47;;;9.60;99.90;;;;;;5025162;28;20034;-91
2023/10/31 05:11:57;;;;;;;18.00;7.10;;;9.60;99.90;;;;;;5004300;28;20124;-92
2023/10/31 05:14:23;;;;;;;15.73;6.28;;;9.70;99.90;;;;;;5029174;28;20026;-92
2023/10/31 05:16:48;;;;;;;14.15;6.32;;;9.70;99.90;;;;;;5013108;28;20473;-92
2023/10/31 05:19:14;;;;;;;15.27;6.97;;;9.60;99.90;;;;;;5000904;28;20541;-91
2023/10/31 05:21:40;;;;;;;16.23;8.10;;;9.60;99.90;;;;;;5028965;28;20117;-91
2023/10/31 05:24:06;;;;;;;15.27;5.00;;;9.60;99.90;;;;;;5027850;28;20018;-91
2023/10/31 05:26:32;;;;;;;15.95;7.25;;;9.60;99.90;;;;;;5003398;28;20077;-92
2023/10/31 05:28:58;;;;;;;16.40;7.40;;;9.60;99.90;;;;;;5028360;28;20453;-92
2023/10/31 05:31:24;;;;;;;16.42;5.75;;;9.60;99.90;;;;;;5006717;28;20080;-92
2023/10/31 05:33:52;;;;;;;11.95;5.13;;;9.60;99.90;;;;;;5020484;28;20026;-92
2023/10/31 05:36:19;;;;;;;12.18;4.90;;;9.60;99.90;;;;;;5006558;28;20076;-92
2023/10/31 05:38:45;;;;;;;13.15;5.55;;;9.60;99.90;;;;;;5013168;28;20088;-91
2023/10/31 05:41:11;;;;;;;13.68;5.70;;;9.70;99.90;;;;;;5026590;28;20026;-91
2023/10/31 05:43:37;;;;;;;12.93;6.10;;;9.70;99.90;;;;;;5004542;28;20114;-89
2023/10/31 05:46:03;;;;;;;14.20;5.80;;;9.70;99.90;;;;;;5027057;28;20580;-90
2023/10/31 05:48:30;;;;;;;12.02;4.75;;;9.70;99.90;;;;;;5028156;28;20048;-91
2023/10/31 05:50:56;;;;;;;12.10;3.28;;;9.60;99.90;;;;;;5012415;28;20034;-90
2023/10/31 05:53:21;;;;;;;13.60;6.70;;;9.60;99.90;;;;;;5011954;28;20030;-89
2023/10/31 05:55:47;;;;;;;14.10;6.00;;;9.70;99.90;;;;;;5005123;28;20036;-90
2023/10/31 05:58:12;;;;;;;16.00;7.50;;;9.70;99.90;;;;;;5022389;28;20798;-90
2023/10/31 06:00:38;;;;;;;15.48;7.75;;;9.70;99.90;;;;;;5013159;28;20444;-90
2023/10/31 06:03:04;;;;;;;16.42;6.50;;;9.60;99.90;;;;;;5024395;28;20495;-90
2023/10/31 06:05:30;;;;;;;14.48;5.00;;;9.70;99.90;;;;;;5024156;28;20025;-90
2023/10/31 06:07:55;;;;;;;10.63;4.53;;;9.60;99.90;;;;;;5021419;28;20685;-89
2023/10/31 06:10:21;;;;;;;13.52;6.25;;;9.60;99.90;;;;;;5009612;28;20058;-90
2023/10/31 06:12:47;;;;;;;18.45;6.93;;;9.60;99.90;;;;;;5027876;28;20527;-89
2023/10/31 06:15:13;;;;;;;19.30;6.00;;;9.60;99.90;;;;;;5030290;28;20160;-89
2023/10/31 06:17:39;;;;;;;19.73;7.72;;;9.60;99.90;;;;;;5027378;28;20524;-90
2023/10/31 06:20:07;;;;;;;17.10;6.75;;;9.50;99.90;;;;;;5007685;28;20117;-90
2023/10/31 06:22:33;;;;;;;20.50;9.02;;;9.50;99.90;;;;;;5010524;28;20053;-89
2023/10/31 06:24:59;;;;;;;20.42;8.82;;;9.60;99.90;;;;;;5007928;28;20052;-89
2023/10/31 06:27:25;;;;;;;20.10;9.48;;;9.60;99.90;;;;;;5003999;28;20026;-90
2023/10/31 06:29:50;;;;;;;18.65;7.15;;;9.70;99.90;;;;;;5011357;28;20048;-89
2023/10/31 06:32:16;;;;;;;19.70;8.93;;;9.60;99.90;;;;;;5027430;28;20485;-90
2023/10/31 06:34:42;;;;;;;23.10;9.80;;;9.60;99.90;;;;;;5010712;28;20107;-90
2023/10/31 06:37:07;;;;;;;22.55;8.77;;;9.60;99.90;;;;;;5010727;28;20026;-90
2023/10/31 06:39:33;;;;;;;20.40;9.15;;;9.60;99.90;;;;;;5016314;28;20025;-88
2023/10/31 06:41:58;;;;;;;21.65;8.77;;;9.70;99.90;;;;;;5004317;28;20385;-90
2023/10/31 06:44:24;;;;;;;23.48;11.35;;;9.60;99.90;;;;;;5026704;28;20021;-90
2023/10/31 06:46:50;;;;;;;22.02;9.55;;;9.60;99.90;;;;;;5016733;28;20036;-91
2023/10/31 06:49:16;;;;;;;26.40;12.00;;;9.60;99.90;;;;;;5049622;28;20033;-91
2023/10/31 06:51:41;;;;;;;25.30;10.70;;;9.60;99.90;;;;;;5033557;28;20497;-91
2023/10/31 06:54:07;;;;;;;28.23;11.05;;;9.60;99.90;;;;;;5050420;28;20099;-92
2023/10/31 06:56:33;;;;;;;21.90;9.25;;;9.60;99.90;;;;;;5049362;28;20075;-91
2023/10/31 06:58:58;;;;;;;28.35;10.50;;;9.60;99.90;;;;;;5050629;28;20103;-92
2023/10/31 07:01:24;;;;;;;30.55;11.82;;;9.70;99.90;;;;;;5041943;28;20017;-89
2023/10/31 07:03:50;;;;;;;24.50;10.07;;;9.70;99.90;;;;;;5028880;28;20413;-89
2023/10/31 07:06:16;;;;;;;25.63;10.57;;;9.70;99.90;;;;;;5044788;28;20095;-89
2023/10/31 07:08:41;;;;;;;22.98;9.90;;;9.70;99.90;;;;;;5032197;28;20078;-90
2023/10/31 07:11:07;;;;;;;25.15;11.27;;;9.70;99.90;;;;;;5031886;28;20080;-89
2023/10/31 07:13:32;;;;;;;25.45;10.23;;;9.70;99.90;;;;;;5032263;28;20021;-89
2023/10/31 07:15:58;;;;;;;24.70;10.68;;;9.70;99.90;;;;;;5025896;28;20059;-90
2023/10/31 07:18:24;;;;;;;25.50;11.75;;;9.70;99.90;;;;;;5049569;28;20028;-89
2023/10/31 07:20:49;;;;;;;23.92;10.85;;;9.80;99.90;;;;;;5050266;28;20392;-89
2023/10/31 07:23:15;;;;;;;20.95;8.68;;;9.70;99.90;;;;;;5046875;28;20025;-89
2023/10/31 07:25:41;;;;;;;22.98;10.43;;;9.80;99.90;;;;;;5031362;28;20051;-89
2023/10/31 07:28:07;;;;;;;28.17;10.93;;;9.80;99.90;;;;;;5047325;28;20116;-90
2023/10/31 07:30:32;;;;;;;18.60;8.60;;;9.80;99.90;;;;;;5051059;28;20449;-90
2023/10/31 07:32:58;;;;;;;22.27;10.60;;;9.80;99.90;;;;;;5050000;28;20395;-90
2023/10/31 07:35:24;;;;;;;14.40;6.80;;;9.80;99.90;;;;;;5047698;28;20060;-91
2023/10/31 07:37:49;;;;;;;20.48;8.40;;;9.80;99.90;;;;;;5052451;28;20397;-90
2023/10/31 07:40:15;;;;;;;20.75;9.45;;;9.80;99.90;;;;;;5053245;28;20424;-90
2023/10/31 07:42:41;;;;;;;18.92;8.65;;;9.80;99.90;;;;;;5050203;28;20508;-88
2023/10/31 07:45:07;;;;;;;15.75;6.80;;;9.80;99.90;;;;;;5041902;28;20521;-91
2023/10/31 07:47:32;;;;;;;23.95;8.88;;;9.90;99.90;;;;;;5032622;28;20041;-90
2023/10/31 07:49:58;;;;;;;19.50;8.73;;;9.90;99.90;;;;;;5049400;28;20036;-90
2023/10/31 07:52:24;;;;;;;24.27;9.85;;;9.90;99.90;;;;;;5015818;28;20031;-90
2023/10/31 07:54:50;;;;;;;19.63;9.35;;;9.90;99.90;;;;;;5045071;28;20085;-89
2023/10/31 07:57:15;;;;;;;19.40;8.80;;;10.00;99.90;;;;;;5048718;28;20446;-90
2023/10/31 07:59:41;;;;;;;19.70;9.57;;;10.10;99.90;;;;;;5049300;28;20504;-90
2023/10/31 08:02:07;;;;;;;17.85;8.57;;;10.10;99.90;;;;;;5027705;28;20021;-90
2023/10/31 08:04:32;;;;;;;18.67;8.38;;;10.00;99.90;;;;;;5049740;28;20440;-90
2023/10/31 08:06:58;;;;;;;18.42;10.25;;;10.00;99.90;;;;;;5030490;28;20421;-90
2023/10/31 08:09:24;;;;;;;17.38;8.38;;;10.00;99.90;;;;;;5049189;28;20032;-90
2023/10/31 08:11:49;;;;;;;18.05;8.38;;;9.90;99.90;;;;;;5047391;28;20021;-90
2023/10/31 08:14:15;;;;;;;19.27;8.15;;;10.00;99.90;;;;;;5046402;28;20161;-91
2023/10/31 08:16:44;;;;;;;17.02;8.07;;;10.00;99.90;;;;;;5025577;28;20044;-90
2023/10/31 08:19:10;;;;;;;16.77;7.93;;;10.00;99.90;;;;;;5048224;28;20091;-90
2023/10/31 08:21:38;;;;;;;16.17;7.75;;;10.10;99.90;;;;;;5050319;28;20029;-90
2023/10/31 08:24:04;;;;;;;15.27;7.80;;;10.20;99.90;;;;;;5048444;28;20032;-91
2023/10/31 08:26:31;;;;;;;16.17;7.75;;;10.20;99.90;;;;;;5047988;28;20025;-90
2023/10/31 08:28:57;;;;;;;15.93;7.22;;;10.20;99.90;;;;;;5049808;28;20032;-91
2023/10/31 08:31:23;;;;;;;14.55;7.20;;;10.20;99.90;;;;;;5050248;28;20432;-91
2023/10/31 08:33:48;;;;;;;16.13;7.85;;;10.30;99.90;;;;;;5045755;28;20057;-91
2023/10/31 08:36:14;;;;;;;18.70;7.28;;;10.40;99.90;;;;;;5046576;28;20471;-91
2023/10/31 08:38:40;;;;;;;16.38;7.25;;;10.40;99.90;;;;;;5047562;28;20117;-90
2023/10/31 08:41:05;;;;;;;15.43;7.32;;;10.40;99.90;;;;;;5048442;28;20392;-91
2023/10/31 08:43:31;;;;;;;20.58;7.88;;;10.50;99.90;;;;;;5050048;28;20493;-90
2023/10/31 08:45:57;;;;;;;16.80;7.78;;;10.50;99.90;;;;;;5050767;28;20430;-91
2023/10/31 08:48:23;;;;;;;17.27;7.35;;;10.50;99.90;;;;;;5048772;28;20037;-91
2023/10/31 08:50:49;;;;;;;17.90;8.25;;;10.50;99.90;;;;;;5055805;28;20599;-90
2023/10/31 08:53:14;;;;;;;14.93;7.75;;;10.50;99.90;;;;;;5049538;28;20059;-90
2023/10/31 08:55:43;;;;;;;17.70;7.60;;;10.50;99.90;;;;;;5047266;28;20502;-89
2023/10/31 08:58:10;;;;;;;15.90;6.82;;;10.50;99.90;;;;;;5053022;28;20060;-90
2023/10/31 09:00:36;;;;;;;12.05;5.70;;;10.50;99.90;;;;;;5041902;28;20025;-91
2023/10/31 09:03:02;;;;;;;13.88;7.35;;;10.70;99.90;;;;;;5048866;28;20498;-89
2023/10/31 09:05:27;;;;;;;16.10;6.47;;;10.70;99.90;;;;;;5033113;28;20021;-91
2023/10/31 09:07:53;;;;;;;15.15;6.28;;;10.70;99.90;;;;;;5049228;28;20055;-90
2023/10/31 09:10:19;;;;;;;11.82;5.68;;;10.70;99.90;;;;;;5050906;28;20017;-90
2023/10/31 09:12:46;;;;;;;13.68;6.85;;;10.70;99.90;;;;;;5050374;28;20052;-90
2023/10/31 09:15:13;;;;;;;14.02;6.38;;;10.80;99.90;;;;;;5047057;28;20087;-89
2023/10/31 09:17:38;;;;;;;12.60;6.07;;;10.90;99.90;;;;;;5048244;28;20664;-89
2023/10/31 09:20:05;;;;;;;11.23;5.03;;;11.00;99.90;;;;;;5046571;28;20113;-90
2023/10/31 09:22:30;;;;;;;10.45;4.90;;;11.00;99.90;;;;;;5045728;28;20116;-90
2023/10/31 09:24:56;;;;;;;10.02;4.72;;;11.10;99.90;;;;;;5053439;28;20025;-90
2023/10/31 09:27:21;;;;;;;13.68;5.95;;;11.10;99.90;;;;;;5051685;28;20064;-89
2023/10/31 09:29:47;;;;;;;15.52;6.35;;;11.20;99.90;;;;;;5051410;28;20035;-90
2023/10/31 09:32:15;;;;;;;9.25;4.35;;;11.30;99.90;;;;;;5045884;28;20086;-90
2023/10/31 09:34:40;;;;;;;11.50;4.45;;;11.40;99.90;;;;;;5052851;28;20029;-89
2023/10/31 09:37:06;;;;;;;12.77;5.95;;;11.40;99.90;;;;;;5047783;28;20036;-91
2023/10/31 09:39:31;;;;;;;12.07;5.90;;;11.30;99.90;;;;;;5034387;28;20030;-90
2023/10/31 09:41:57;;;;;;;13.27;5.93;;;11.30;99.90;;;;;;5051387;28;20023;-89
2023/10/31 09:44:23;;;;;;;11.20;5.60;;;11.40;99.90;;;;;;5051868;28;20083;-90
2023/10/31 09:46:51;;;;;;;9.85;4.30;;;11.40;99.90;;;;;;5034066;28;20025;-90
2023/10/31 09:49:17;;;;;;;15.25;5.60;;;11.40;99.90;;;;;;5046469;28;20024;-90
2023/10/31 09:51:43;;;;;;;11.18;5.20;;;11.40;99.90;;;;;;5050466;28;20075;-89
2023/10/31 09:54:13;;;;;;;11.40;4.90;;;11.50;99.90;;;;;;5047910;28;20029;-90
2023/10/31 09:56:38;;;;;;;9.77;4.67;;;11.50;99.90;;;;;;5047432;28;20040;-89
2023/10/31 09:59:05;;;;;;;10.82;5.07;;;11.40;99.90;;;;;;5031941;28;20480;-89
2023/10/31 10:01:30;;;;;;;10.25;5.30;;;11.40;99.90;;;;;;5033516;28;20036;-89
2023/10/31 10:03:56;;;;;;;9.13;4.03;;;11.40;99.90;;;;;;5032437;28;20103;-90
2023/10/31 10:06:23;;;;;;;14.52;5.60;;;11.40;99.90;;;;;;5046796;28;20033;-89
2023/10/31 10:08:50;;;;;;;10.27;5.07;;;11.40;99.90;;;;;;5046197;28;20029;-88
2023/10/31 10:11:15;;;;;;;13.57;5.60;;;11.30;99.90;;;;;;5031040;28;20120;-89
2023/10/31 10:13:41;;;;;;;11.38;5.47;;;11.30;99.90;;;;;;5048065;28;20116;-88
2023/10/31 10:16:07;;;;;;;10.30;4.18;;;11.30;99.90;;;;;;5030417;28;20029;-89
2023/10/31 10:18:35;;;;;;;11.23;5.65;;;11.40;99.90;;;;;;5041665;28;20040;-89
2023/10/31 10:21:02;;;;;;;8.02;3.90;;;11.40;99.90;;;;;;5048107;28;20021;-89
2023/10/31 10:23:30;;;;;;;10.05;5.20;;;11.40;99.90;;;;;;5045146;28;20048;-90
2023/10/31 10:25:57;;;;;;;12.18;5.35;;;11.50;99.90;;;;;;5030925;28;20468;-89
2023/10/31 10:28:26;;;;;;;9.50;4.05;;;;;;;;;;5031951;28;20035;-93
2023/10/31 10:30:53;;;;;;;14.18;4.70;;;11.70;99.90;;;;;;5046558;28;20072;-90
2023/10/31 10:33:20;;;;;;;13.48;4.50;;;11.80;99.90;;;;;;5031717;28;20638;-90
2023/10/31 10:35:46;;;;;;;10.27;4.70;;;11.80;99.90;;;;;;5031868;28;20815;-90
2023/10/31 10:38:19;;;;;;;11.07;4.30;;;11.80;99.90;;;;;;5030188;28;20040;-90
2023/10/31 10:40:47;;;;;;;10.07;4.15;;;11.70;99.90;;;;;;5046549;28;20029;-90
2023/10/31 10:43:23;;;;;;;10.18;4.57;;;11.60;99.90;;;;;;5041690;28;20372;-90
2023/10/31 10:45:56;;;;;;;13.32;5.13;;;11.60;99.90;;;;;;5030924;28;20472;-89
2023/10/31 10:48:23;;;;;;;8.75;4.00;;;11.60;99.90;;;;;;5049027;28;20053;-89
2023/10/31 10:51:17;;;;;;;10.38;4.55;;;11.60;99.90;;;;;;5047826;28;20068;-90
2023/10/31 10:54:10;;;;;;;11.63;5.20;;;11.50;99.90;;;;;;5046346;28;20396;-89
2023/10/31 10:56:41;;;;;;;11.27;4.70;;;11.50;99.90;;;;;;5045297;28;20048;-90
2023/10/31 10:59:20;;;;;;;11.60;4.78;;;11.50;99.90;;;;;;5028223;28;20021;-91
2023/10/31 11:01:49;;;;;;;13.75;4.97;;;11.50;99.90;;;;;;5030827;28;20338;-91
2023/10/31 11:04:16;;;;;;;13.03;4.27;;;11.40;99.90;;;;;;5031398;28;20145;-91
2023/10/31 11:06:43;;;;;;;14.57;4.90;;;11.30;99.90;;;;;;5047623;28;20047;-90
2023/10/31 11:09:10;;;;;;;11.88;5.90;;;11.30;99.90;;;;;;5027412;28;20393;-90
2023/10/31 11:11:38;;;;;;;15.30;5.65;;;11.30;99.90;;;;;;5023994;28;20079;-90
2023/10/31 11:14:04;;;;;;;13.77;5.20;;;11.30;99.90;;;;;;5032739;28;20031;-90
2023/10/31 11:16:39;;;;;;;11.23;4.57;;;11.40;99.90;;;;;;5030806;28;20117;-90
2023/10/31 11:19:05;;;;;;;13.43;5.30;;;11.40;99.90;;;;;;5030683;28;20072;-90
2023/10/31 11:21:31;;;;;;;15.90;6.35;;;11.40;99.90;;;;;;5030734;28;20021;-91
2023/10/31 11:24:01;;;;;;;12.55;5.95;;;11.30;99.90;;;;;;5045658;28;20112;-90
2023/10/31 11:26:32;;;;;;;13.20;4.82;;;11.20;99.90;;;;;;5044850;28;20047;-91
2023/10/31 11:29:06;;;;;;;9.80;4.65;;;11.20;99.90;;;;;;5046729;28;20040;-88
2023/10/31 11:31:35;;;;;;;12.10;5.35;;;11.30;99.90;;;;;;5030446;28;20503;-88
2023/10/31 11:34:02;;;;;;;13.77;5.88;;;11.40;99.90;;;;;;5030251;28;20025;-88
2023/10/31 11:36:32;;;;;;;13.40;5.35;;;11.50;99.90;;;;;;5047878;28;20013;-88
2023/10/31 11:39:25;;;;;;;11.88;4.95;;;11.70;99.90;;;;;;5047680;28;20029;-89
2023/10/31 11:41:55;;;;;;;12.82;5.18;;;11.70;99.90;;;;;;5030772;28;20021;-88
2023/10/31 11:44:27;;;;;;;10.40;4.65;;;11.70;99.90;;;;;;5047477;28;20097;-88
2023/10/31 11:46:53;;;;;;;9.45;4.60;;;11.80;99.90;;;;;;5029815;28;20025;-88
2023/10/31 11:49:47;;;;;;;11.10;4.10;;;11.90;99.90;;;;;;5046205;28;20076;-88
2023/10/31 11:52:17;;;;;;;11.95;3.85;;;11.90;99.90;;;;;;5031253;28;20024;-88
2023/10/31 11:54:44;;;;;;;10.30;4.70;;;11.90;99.90;;;;;;5045284;28;20039;-88
2023/10/31 11:57:09;;;;;;;7.40;2.97;;;11.90;99.90;;;;;;5045892;28;20033;-88
2023/10/31 11:59:38;;;;;;;12.90;4.65;;;11.80;99.90;;;;;;5029894;28;20029;-88
2023/10/31 12:02:22;;;;;;;16.38;4.40;;;11.80;99.90;;;;;;5045225;28;20503;-88
2023/10/31 12:04:48;;;;;;;12.38;3.90;;;11.80;99.90;;;;;;5028134;28;20471;-88
2023/10/31 12:07:13;;;;;;;13.63;4.40;;;11.80;99.90;;;;;;5043530;28;20070;-88
2023/10/31 12:09:47;;;;;;;11.20;3.85;;;11.90;99.90;;;;;;5045667;28;20024;-88
2023/10/31 12:12:12;;;;;;;18.20;4.22;;;11.90;99.90;;;;;;5041881;28;20504;-88
2023/10/31 12:14:38;;;;;;;13.73;3.90;;;12.00;99.90;;;;;;5043322;28;20029;-88
2023/10/31 12:17:06;;;;;;;9.55;3.33;;;12.20;99.90;;;;;;5047349;28;20037;-88
2023/10/31 12:19:32;;;;;;;11.38;3.83;;;12.50;99.90;;;;;;5030350;28;20033;-88
2023/10/31 12:21:58;;;;;;;10.68;3.90;;;12.70;99.90;;;;;;5049255;28;20045;-88
2023/10/31 12:24:24;;;;;;;8.93;3.28;;;12.70;99.90;;;;;;5033957;28;20106;-88
2023/10/31 12:26:51;;;;;;;8.20;2.83;;;12.60;99.90;;;;;;5045583;28;20028;-88
2023/10/31 12:29:18;;;;;;;9.15;3.60;;;12.60;99.90;;;;;;5033838;28;20025;-88
2023/10/31 12:31:50;;;;;;;7.32;3.00;;;12.50;99.90;;;;;;5050496;28;20028;-88
2023/10/31 12:34:17;;;;;;;8.60;3.80;;;12.50;99.90;;;;;;5051308;28;20060;-88
2023/10/31 12:36:45;;;;;;;10.13;3.53;;;12.50;99.90;;;;;;5044518;28;20400;-90
2023/10/31 12:39:12;;;;;;;7.60;2.90;;;12.40;99.90;;;;;;5050222;28;20368;-90
2023/10/31 12:41:39;;;;;;;12.32;4.15;;;12.40;99.90;;;;;;5047331;28;20025;-90